Time;durP1;ratioP1;P1;durP2;ratioP2;P2;SDS_P1;SDS_P2;PMS_P1;PMS_P2;Temp;Humidity;BMP_temperature;BMP_pressure;BME280_temperature;BME280_humidity;BME280_pressure;Samples;Min_cycle;Max_cycle;Signal;HPM_P1;HPM_P2
2023/11/22 00:00:21;;;;;;;12.73;9.77;;;5.60;99.90;;;;;;5083912;28;20027;-36
2023/11/22 00:02:47;;;;;;;13.40;10.05;;;5.60;99.90;;;;;;5082449;28;20583;-36
2023/11/22 00:05:13;;;;;;;11.65;9.10;;;5.60;99.90;;;;;;5082884;28;20020;-35
2023/11/22 00:07:38;;;;;;;13.15;9.63;;;5.60;99.90;;;;;;5083618;28;20024;-36
2023/11/22 00:10:05;;;;;;;13.25;9.48;;;5.60;99.90;;;;;;5082254;28;20499;-37
2023/11/22 00:12:37;;;;;;;12.18;8.82;;;5.60;99.90;;;;;;5082870;28;20040;-36
2023/11/22 00:15:06;;;;;;;11.27;9.20;;;5.50;99.90;;;;;;5083678;28;20038;-36
2023/11/22 00:17:33;;;;;;;13.40;10.38;;;5.50;99.90;;;;;;5081784;28;20359;-36
2023/11/22 00:20:05;;;;;;;14.35;10.00;;;5.50;99.90;;;;;;5082403;28;20032;-35
2023/11/22 00:22:34;;;;;;;14.82;11.30;;;5.50;99.90;;;;;;5082204;28;20077;-35
2023/11/22 00:25:01;;;;;;;13.35;10.25;;;5.50;99.90;;;;;;5081724;28;20028;-36
2023/11/22 00:27:27;;;;;;;13.07;9.95;;;5.50;99.90;;;;;;5082685;28;20491;-36
2023/11/22 00:29:53;;;;;;;13.05;10.55;;;5.50;99.90;;;;;;5082111;28;20124;-37
2023/11/22 00:32:19;;;;;;;12.65;10.32;;;5.50;99.90;;;;;;5082284;28;20040;-37
2023/11/22 00:34:44;;;;;;;11.88;10.43;;;5.50;99.90;;;;;;5082271;28;20063;-36
2023/11/22 00:37:10;;;;;;;13.77;11.07;;;5.50;99.90;;;;;;5082343;28;20036;-36
2023/11/22 00:39:37;;;;;;;12.02;10.60;;;5.40;99.90;;;;;;5082598;28;20031;-36
2023/11/22 00:42:03;;;;;;;12.40;10.20;;;5.40;99.90;;;;;;5081912;28;20468;-37
2023/11/22 00:44:29;;;;;;;13.82;9.73;;;5.40;99.90;;;;;;5084007;28;20031;-36
2023/11/22 00:46:57;;;;;;;11.90;8.93;;;5.40;99.90;;;;;;5081325;28;20099;-36
2023/11/22 00:49:22;;;;;;;12.88;10.40;;;5.40;99.90;;;;;;5082721;28;20035;-37
2023/11/22 00:51:48;;;;;;;15.98;11.93;;;5.40;99.90;;;;;;5081547;28;20048;-36
2023/11/22 00:54:15;;;;;;;15.00;10.40;;;5.40;99.90;;;;;;5082717;28;20111;-37
2023/11/22 00:56:40;;;;;;;13.32;9.90;;;5.30;99.90;;;;;;5081921;28;20925;-37
2023/11/22 00:59:06;;;;;;;14.43;10.55;;;5.30;99.90;;;;;;5081052;28;20024;-36
2023/11/22 01:01:32;;;;;;;13.93;10.65;;;5.30;99.90;;;;;;5082376;28;20110;-37
2023/11/22 01:03:57;;;;;;;12.05;9.50;;;5.30;99.90;;;;;;5081124;28;20142;-36
2023/11/22 01:06:24;;;;;;;11.27;8.95;;;5.30;99.90;;;;;;5081435;28;20031;-38
2023/11/22 01:08:50;;;;;;;11.68;8.85;;;5.30;99.90;;;;;;5081298;28;20032;-36
2023/11/22 01:11:16;;;;;;;11.85;9.40;;;5.30;99.90;;;;;;5082255;28;20035;-36
2023/11/22 01:13:43;;;;;;;10.25;8.77;;;5.30;99.90;;;;;;5081137;28;20068;-37
2023/11/22 01:16:09;;;;;;;13.68;9.13;;;5.30;99.90;;;;;;5081873;28;20127;-38
2023/11/22 01:18:35;;;;;;;10.65;8.70;;;5.20;99.90;;;;;;5081604;28;20073;-38
2023/11/22 01:21:00;;;;;;;10.55;7.82;;;5.20;99.90;;;;;;5080975;28;20024;-36
2023/11/22 01:23:27;;;;;;;9.90;8.05;;;5.20;99.90;;;;;;5081471;28;20028;-36
2023/11/22 01:25:53;;;;;;;11.27;8.85;;;5.20;99.90;;;;;;5081866;28;20030;-37
2023/11/22 01:28:19;;;;;;;9.50;7.85;;;5.20;99.90;;;;;;5081535;28;20020;-36
2023/11/22 01:30:45;;;;;;;11.18;8.25;;;5.20;99.90;;;;;;5081511;28;20041;-36
2023/11/22 01:33:11;;;;;;;11.75;8.73;;;5.20;99.90;;;;;;5082095;28;20047;-36
2023/11/22 01:35:38;;;;;;;11.23;9.02;;;5.10;99.90;;;;;;5081324;28;20020;-36
2023/11/22 01:38:04;;;;;;;10.07;8.75;;;5.20;99.90;;;;;;5081807;28;20032;-36
2023/11/22 01:40:30;;;;;;;12.27;9.40;;;5.20;99.90;;;;;;5081940;28;20020;-36
2023/11/22 01:42:56;;;;;;;13.15;9.40;;;5.20;99.90;;;;;;5080438;28;20024;-36
2023/11/22 01:45:24;;;;;;;11.20;9.23;;;5.20;99.90;;;;;;5081317;28;20036;-36
2023/11/22 01:47:51;;;;;;;13.57;9.95;;;5.10;99.90;;;;;;5080643;28;20024;-36
2023/11/22 01:50:17;;;;;;;11.23;8.98;;;5.10;99.90;;;;;;5080615;28;20036;-36
2023/11/22 01:52:43;;;;;;;12.20;9.43;;;5.10;99.90;;;;;;5080571;28;20035;-38
2023/11/22 01:55:09;;;;;;;14.60;8.90;;;5.10;99.90;;;;;;5079979;28;20032;-36
2023/11/22 01:57:36;;;;;;;13.68;9.85;;;5.10;99.90;;;;;;5080854;28;20024;-36
2023/11/22 02:00:04;;;;;;;12.82;9.02;;;5.10;99.90;;;;;;5080615;28;20024;-35
2023/11/22 02:02:31;;;;;;;11.13;9.10;;;5.00;99.90;;;;;;5080464;28;20016;-35
2023/11/22 02:04:56;;;;;;;13.18;9.85;;;5.00;99.90;;;;;;5080044;28;20775;-36
2023/11/22 02:07:23;;;;;;;10.35;8.45;;;5.00;99.90;;;;;;5080865;28;20109;-36
2023/11/22 02:09:49;;;;;;;12.05;8.32;;;5.00;99.90;;;;;;5078407;28;20154;-36
2023/11/22 02:12:14;;;;;;;11.20;8.50;;;5.00;99.90;;;;;;5080997;28;20040;-36
2023/11/22 02:14:40;;;;;;;13.75;9.60;;;5.00;99.90;;;;;;5080904;28;20093;-36
2023/11/22 02:17:06;;;;;;;14.05;9.23;;;5.00;99.90;;;;;;5080473;28;20127;-36
2023/11/22 02:19:31;;;;;;;13.27;9.07;;;5.00;99.90;;;;;;5081425;28;20036;-36
2023/11/22 02:21:57;;;;;;;11.25;9.38;;;4.90;99.90;;;;;;5081376;28;20020;-36
2023/11/22 02:24:22;;;;;;;13.15;9.70;;;4.90;99.90;;;;;;5081727;28;20023;-37
2023/11/22 02:26:48;;;;;;;13.00;9.65;;;4.90;99.90;;;;;;5081036;28;20023;-38
2023/11/22 02:29:14;;;;;;;10.38;8.57;;;4.90;99.90;;;;;;5080717;28;20123;-37
2023/11/22 02:31:42;;;;;;;11.60;9.48;;;4.90;99.90;;;;;;5078995;28;20710;-41
2023/11/22 02:34:08;;;;;;;13.88;10.00;;;4.90;99.90;;;;;;5080959;28;20580;-37
2023/11/22 02:36:34;;;;;;;12.77;9.52;;;4.90;99.90;;;;;;5081020;28;20024;-36
2023/11/22 02:39:00;;;;;;;11.43;8.35;;;4.90;99.90;;;;;;5079512;28;20448;-36
2023/11/22 02:41:29;;;;;;;12.52;9.15;;;4.80;99.90;;;;;;5080605;28;20024;-38
2023/11/22 02:43:58;;;;;;;11.63;8.70;;;4.80;99.90;;;;;;5080693;28;20093;-38
2023/11/22 02:46:23;;;;;;;9.98;7.90;;;4.80;99.90;;;;;;5080002;28;20028;-35
2023/11/22 02:48:49;;;;;;;9.70;8.13;;;4.80;99.90;;;;;;5080026;28;20039;-36
2023/11/22 02:51:16;;;;;;;9.73;7.93;;;4.80;99.90;;;;;;5076293;28;20163;-37
2023/11/22 02:53:43;;;;;;;10.40;8.45;;;4.80;99.90;;;;;;5072072;28;20040;-36
2023/11/22 02:56:10;;;;;;;10.60;8.30;;;4.70;99.90;;;;;;5078505;28;20130;-36
2023/11/22 02:58:38;;;;;;;10.85;8.25;;;4.70;99.90;;;;;;5069665;28;20031;-37
2023/11/22 03:01:04;;;;;;;13.85;8.85;;;4.70;99.90;;;;;;5077653;28;20120;-39
2023/11/22 03:03:29;;;;;;;11.13;8.30;;;4.70;99.90;;;;;;5069118;28;20119;-37
2023/11/22 03:05:55;;;;;;;12.30;8.43;;;4.70;99.90;;;;;;5079778;28;20750;-36
2023/11/22 03:08:21;;;;;;;12.90;8.88;;;4.60;99.90;;;;;;5067590;28;20039;-37
2023/11/22 03:10:46;;;;;;;14.50;9.52;;;4.60;99.90;;;;;;5080763;28;20051;-36
2023/11/22 03:13:12;;;;;;;11.25;8.57;;;4.60;99.90;;;;;;5068290;28;20546;-36
2023/11/22 03:15:38;;;;;;;13.45;9.15;;;4.60;99.90;;;;;;5084452;28;20054;-38
2023/11/22 03:18:07;;;;;;;10.77;8.57;;;4.60;99.90;;;;;;5070634;28;20036;-36
2023/11/22 03:20:34;;;;;;;10.52;8.20;;;4.50;99.90;;;;;;5082993;28;20096;-36
2023/11/22 03:23:00;;;;;;;11.70;8.93;;;4.50;99.90;;;;;;5073053;28;20461;-37
2023/11/22 03:25:26;;;;;;;13.10;8.40;;;4.50;99.90;;;;;;5081854;28;20032;-37
2023/11/22 03:27:51;;;;;;;10.70;8.48;;;4.50;99.90;;;;;;5075318;28;20032;-36
2023/11/22 03:30:17;;;;;;;10.00;8.25;;;4.50;99.90;;;;;;5079061;28;20047;-36
2023/11/22 03:32:43;;;;;;;11.55;8.55;;;4.40;99.90;;;;;;5078165;28;20032;-37
2023/11/22 03:35:10;;;;;;;13.10;8.40;;;4.40;99.90;;;;;;5075359;28;20427;-36
2023/11/22 03:37:36;;;;;;;10.45;7.72;;;4.40;99.90;;;;;;5080832;28;20035;-37
2023/11/22 03:40:02;;;;;;;10.75;7.88;;;4.40;99.90;;;;;;5072281;28;20032;-37
2023/11/22 03:42:27;;;;;;;12.13;8.98;;;4.40;99.90;;;;;;5081825;28;20028;-36
2023/11/22 03:44:58;;;;;;;11.50;8.30;;;4.40;99.90;;;;;;5072075;28;20024;-36
2023/11/22 03:47:24;;;;;;;10.73;8.10;;;4.30;99.90;;;;;;5082520;28;20051;-36
2023/11/22 03:49:50;;;;;;;10.93;8.15;;;4.30;99.90;;;;;;5071186;28;20119;-36
2023/11/22 03:52:15;;;;;;;11.95;8.77;;;4.30;99.90;;;;;;5083363;28;20044;-37
2023/11/22 03:54:41;;;;;;;10.93;8.30;;;4.30;99.90;;;;;;5069727;28;20121;-37
2023/11/22 03:57:06;;;;;;;11.25;8.38;;;4.30;99.90;;;;;;5083750;28;20020;-36
2023/11/22 03:59:34;;;;;;;12.90;8.50;;;4.30;99.90;;;;;;5070312;28;20048;-37
2023/11/22 04:02:00;;;;;;;10.77;8.18;;;4.30;99.90;;;;;;5081994;28;20024;-36
2023/11/22 04:04:25;;;;;;;10.30;7.80;;;4.30;99.90;;;;;;5072190;28;20032;-37
2023/11/22 04:06:52;;;;;;;10.77;7.90;;;4.20;99.90;;;;;;5080538;28;20036;-37
2023/11/22 04:09:18;;;;;;;10.85;7.70;;;4.20;99.90;;;;;;5074194;28;20411;-36
2023/11/22 04:11:44;;;;;;;9.85;7.90;;;4.20;99.90;;;;;;5078293;28;20032;-36
2023/11/22 04:14:09;;;;;;;11.60;7.82;;;4.10;99.90;;;;;;5077308;28;20067;-35
2023/11/22 04:16:36;;;;;;;12.00;8.50;;;4.10;99.90;;;;;;5075131;28;20035;-43
2023/11/22 04:19:01;;;;;;;10.82;7.90;;;4.00;99.90;;;;;;5079925;28;20036;-36
2023/11/22 04:21:27;;;;;;;10.38;7.55;;;4.00;99.90;;;;;;5072961;28;20024;-37
2023/11/22 04:23:52;;;;;;;10.95;8.10;;;4.00;99.90;;;;;;5080049;28;20020;-36
2023/11/22 04:26:20;;;;;;;9.65;7.55;;;4.00;99.90;;;;;;5071478;28;20063;-36
2023/11/22 04:28:45;;;;;;;11.68;8.55;;;4.00;99.90;;;;;;5081388;28;20032;-36
2023/11/22 04:31:11;;;;;;;10.23;7.60;;;4.00;99.90;;;;;;5070359;28;20374;-35
2023/11/22 04:33:37;;;;;;;9.80;7.55;;;3.90;99.90;;;;;;5083275;28;20042;-38
2023/11/22 04:36:03;;;;;;;10.88;7.97;;;3.90;99.90;;;;;;5068956;28;20025;-37
2023/11/22 04:38:29;;;;;;;11.40;7.82;;;3.90;99.90;;;;;;5082125;28;20028;-37
2023/11/22 04:40:54;;;;;;;10.48;8.38;;;3.90;99.90;;;;;;5068931;28;20047;-35
2023/11/22 04:43:20;;;;;;;10.23;7.57;;;3.90;99.90;;;;;;5082435;28;20093;-40
2023/11/22 04:45:45;;;;;;;10.32;7.82;;;3.90;99.90;;;;;;5072083;28;20035;-36
2023/11/22 04:48:14;;;;;;;11.13;7.70;;;3.90;99.90;;;;;;5079364;28;20089;-36
2023/11/22 04:50:40;;;;;;;9.27;6.80;;;3.80;99.90;;;;;;5074144;28;20163;-36
2023/11/22 04:53:06;;;;;;;10.23;7.65;;;3.70;99.90;;;;;;5076817;28;20043;-38
2023/11/22 04:55:31;;;;;;;11.02;8.00;;;3.70;99.90;;;;;;5077522;28;20025;-40
2023/11/22 04:58:00;;;;;;;12.48;8.77;;;3.70;99.90;;;;;;5073620;28;20028;-37
2023/11/22 05:00:25;;;;;;;11.65;8.13;;;3.70;99.90;;;;;;5079521;28;20102;-35
2023/11/22 05:02:51;;;;;;;13.45;9.52;;;3.60;99.90;;;;;;5072158;28;20064;-36
2023/11/22 05:05:17;;;;;;;13.88;9.07;;;3.60;99.90;;;;;;5080353;28;20013;-36
2023/11/22 05:07:44;;;;;;;14.05;9.98;;;3.60;99.90;;;;;;5070275;28;20089;-35
2023/11/22 05:10:10;;;;;;;14.07;9.95;;;3.60;99.90;;;;;;5080550;28;20024;-36
2023/11/22 05:12:36;;;;;;;12.90;10.00;;;3.60;99.90;;;;;;5070416;28;20661;-35
2023/11/22 05:15:02;;;;;;;14.45;10.70;;;3.60;99.90;;;;;;5082012;28;20558;-36
2023/11/22 05:17:28;;;;;;;17.45;11.02;;;3.50;99.90;;;;;;5069983;28;20043;-36
2023/11/22 05:19:53;;;;;;;15.13;11.25;;;3.50;99.90;;;;;;5081854;28;20050;-35
2023/11/22 05:22:19;;;;;;;16.55;11.50;;;3.50;99.90;;;;;;5069423;28;20111;-35
2023/11/22 05:24:45;;;;;;;15.15;11.15;;;3.50;99.90;;;;;;5081864;28;20032;-37
2023/11/22 05:27:10;;;;;;;15.70;10.80;;;3.50;99.90;;;;;;5070475;28;20024;-36
2023/11/22 05:29:36;;;;;;;17.48;10.60;;;3.50;99.90;;;;;;5079174;28;20039;-36
2023/11/22 05:32:02;;;;;;;14.00;10.00;;;3.50;99.90;;;;;;5073468;28;20040;-36
2023/11/22 05:34:28;;;;;;;12.00;8.85;;;3.50;99.90;;;;;;5075652;28;20101;-36
2023/11/22 05:36:54;;;;;;;12.93;9.07;;;3.50;99.90;;;;;;5075446;28;20024;-35
2023/11/22 05:39:22;;;;;;;11.48;8.27;;;3.50;99.90;;;;;;5074719;28;20812;-36
2023/11/22 05:41:48;;;;;;;10.07;7.82;;;3.50;99.90;;;;;;5077734;28;20032;-36
2023/11/22 05:44:14;;;;;;;12.95;8.88;;;3.50;99.90;;;;;;5071756;28;20119;-37
2023/11/22 05:46:39;;;;;;;14.20;10.00;;;3.50;99.90;;;;;;5079217;28;20103;-37
2023/11/22 05:49:05;;;;;;;15.63;10.15;;;3.60;99.90;;;;;;5069034;28;20028;-38
2023/11/22 05:51:33;;;;;;;13.15;10.00;;;3.60;99.90;;;;;;5080262;28;20048;-36
2023/11/22 05:54:00;;;;;;;14.45;9.75;;;3.60;99.90;;;;;;5068530;28;20036;-36
2023/11/22 05:56:26;;;;;;;14.35;10.70;;;3.60;99.90;;;;;;5061036;28;20495;-35
2023/11/22 05:58:51;;;;;;;15.68;10.55;;;3.60;99.90;;;;;;5072605;28;20033;-36
2023/11/22 06:01:17;;;;;;;15.50;10.27;;;3.60;99.90;;;;;;5060613;28;20035;-36
2023/11/22 06:03:42;;;;;;;13.07;10.30;;;3.60;99.90;;;;;;5073759;28;20449;-38
2023/11/22 06:06:08;;;;;;;15.35;10.55;;;3.60;99.90;;;;;;5061330;28;20339;-36
2023/11/22 06:08:34;;;;;;;12.77;9.45;;;3.60;99.90;;;;;;5070924;28;20683;-36
2023/11/22 06:10:59;;;;;;;14.32;10.07;;;3.60;99.90;;;;;;5062899;28;20095;-37
2023/11/22 06:13:26;;;;;;;12.68;9.65;;;3.60;99.90;;;;;;5068656;28;20097;-37
2023/11/22 06:15:51;;;;;;;13.77;9.98;;;3.70;99.90;;;;;;5065015;28;20166;-37
2023/11/22 06:18:18;;;;;;;12.88;9.07;;;3.60;99.90;;;;;;5066349;28;20740;-36
2023/11/22 06:20:50;;;;;;;14.70;9.57;;;3.70;99.90;;;;;;5068102;28;20151;-36
2023/11/22 06:23:16;;;;;;;11.25;8.50;;;3.70;99.90;;;;;;5063673;28;20024;-36
2023/11/22 06:25:42;;;;;;;13.60;9.85;;;3.70;99.90;;;;;;5070090;28;20028;-36
2023/11/22 06:28:08;;;;;;;12.65;8.32;;;3.70;99.90;;;;;;5062846;28;20698;-37
2023/11/22 06:30:34;;;;;;;12.18;8.55;;;3.70;99.90;;;;;;5072288;28;20031;-38
2023/11/22 06:33:00;;;;;;;11.95;8.90;;;3.80;99.90;;;;;;5062000;28;20123;-37
2023/11/22 06:35:27;;;;;;;13.23;9.30;;;3.70;99.90;;;;;;5072181;28;20103;-37
2023/11/22 06:37:52;;;;;;;14.02;9.60;;;3.80;99.90;;;;;;5059339;28;20839;-37
2023/11/22 06:40:18;;;;;;;18.95;10.50;;;3.80;99.90;;;;;;5073345;28;20028;-37
2023/11/22 06:42:47;;;;;;;14.95;10.38;;;3.80;99.90;;;;;;5061344;28;20179;-38
2023/11/22 06:45:12;;;;;;;13.07;9.68;;;3.80;99.90;;;;;;5072291;28;20471;-39
2023/11/22 06:47:39;;;;;;;13.05;9.98;;;3.80;99.90;;;;;;5061308;28;20032;-37
2023/11/22 06:50:08;;;;;;;13.15;9.15;;;3.90;99.90;;;;;;5075132;28;20125;-37
2023/11/22 06:52:35;;;;;;;13.18;9.38;;;3.80;99.90;;;;;;5064384;28;20036;-37
2023/11/22 06:55:04;;;;;;;13.30;9.30;;;3.90;99.90;;;;;;5073453;28;20087;-37
2023/11/22 06:57:30;;;;;;;11.35;8.23;;;3.90;99.90;;;;;;5066094;28;20056;-42
2023/11/22 06:59:56;;;;;;;11.73;8.80;;;3.90;99.90;;;;;;5070562;28;20139;-37
2023/11/22 07:02:22;;;;;;;12.32;8.93;;;3.90;99.90;;;;;;5069367;28;20612;-37
2023/11/22 07:04:48;;;;;;;14.30;9.82;;;4.00;99.90;;;;;;5068438;28;20020;-37
2023/11/22 07:07:14;;;;;;;13.93;9.73;;;4.00;99.90;;;;;;5072595;28;20025;-37
2023/11/22 07:09:44;;;;;;;14.45;10.40;;;4.00;99.90;;;;;;5067039;28;20015;-37
2023/11/22 07:12:10;;;;;;;14.77;10.70;;;4.00;99.90;;;;;;5073607;28;20221;-37
2023/11/22 07:14:36;;;;;;;12.95;9.90;;;4.00;99.90;;;;;;5066137;28;20039;-37
2023/11/22 07:17:03;;;;;;;14.93;10.43;;;4.00;99.90;;;;;;5073669;28;20020;-37
2023/11/22 07:19:28;;;;;;;16.02;9.63;;;4.00;99.90;;;;;;5062276;28;20024;-37
2023/11/22 07:21:54;;;;;;;15.50;10.30;;;4.10;99.90;;;;;;5073922;28;20035;-37
2023/11/22 07:24:20;;;;;;;14.30;10.18;;;4.10;99.90;;;;;;5063554;28;20420;-36
2023/11/22 07:26:47;;;;;;;13.57;9.75;;;4.10;99.90;;;;;;5070240;28;20499;-37
2023/11/22 07:29:13;;;;;;;15.60;10.90;;;4.10;99.90;;;;;;5082821;28;20684;-37
2023/11/22 07:31:39;;;;;;;15.00;10.65;;;4.10;99.90;;;;;;5070103;28;20036;-37
2023/11/22 07:34:06;;;;;;;15.52;9.80;;;4.10;99.90;;;;;;5082157;28;20522;-37
2023/11/22 07:36:31;;;;;;;13.57;9.57;;;4.20;99.90;;;;;;5072567;28;20060;-37
2023/11/22 07:38:57;;;;;;;13.63;9.57;;;4.20;99.90;;;;;;5080567;28;20115;-34
2023/11/22 07:41:26;;;;;;;15.02;10.55;;;4.20;99.90;;;;;;5074640;28;20021;-36
2023/11/22 07:43:52;;;;;;;13.25;9.52;;;4.20;99.90;;;;;;5078387;28;20111;-36
2023/11/22 07:46:18;;;;;;;13.55;9.82;;;4.30;99.90;;;;;;5078494;28;20027;-37
2023/11/22 07:48:46;;;;;;;13.90;9.43;;;4.30;99.90;;;;;;5076386;28;20032;-37
2023/11/22 07:51:15;;;;;;;13.77;10.00;;;4.30;99.90;;;;;;5079146;28;20616;-37
2023/11/22 07:53:41;;;;;;;13.63;9.70;;;4.30;99.90;;;;;;5074220;28;20047;-37
2023/11/22 07:56:08;;;;;;;15.55;9.73;;;4.30;99.90;;;;;;5081536;28;20093;-36
2023/11/22 07:58:35;;;;;;;13.70;10.07;;;4.40;99.90;;;;;;5061293;28;20475;-39
2023/11/22 08:01:04;;;;;;;14.35;9.52;;;4.40;99.90;;;;;;5080735;28;20017;-37
2023/11/22 08:03:30;;;;;;;13.77;10.77;;;4.50;99.90;;;;;;5072718;28;20028;-36
2023/11/22 08:05:55;;;;;;;13.45;10.20;;;4.50;99.90;;;;;;5082422;28;20028;-36
2023/11/22 08:08:25;;;;;;;12.68;9.73;;;4.50;99.90;;;;;;5070304;28;20024;-36
2023/11/22 08:10:56;;;;;;;17.48;10.30;;;4.60;99.90;;;;;;5084210;28;20901;-36
2023/11/22 08:13:22;;;;;;;14.23;9.70;;;4.60;99.90;;;;;;5070557;28;20039;-36
2023/11/22 08:15:48;;;;;;;13.10;9.25;;;4.70;99.90;;;;;;5083471;28;20028;-37
2023/11/22 08:18:16;;;;;;;13.20;10.07;;;4.70;99.90;;;;;;5070838;28;20047;-37
2023/11/22 08:20:43;;;;;;;14.50;9.88;;;4.80;99.90;;;;;;5083408;28;20024;-36
2023/11/22 08:23:09;;;;;;;14.52;9.77;;;4.80;99.90;;;;;;5071680;28;20105;-35
2023/11/22 08:25:34;;;;;;;13.65;9.43;;;4.90;99.90;;;;;;5081405;28;20736;-36
2023/11/22 08:28:01;;;;;;;12.65;9.40;;;4.90;99.90;;;;;;5073252;28;20044;-41
2023/11/22 08:30:26;;;;;;;13.18;10.40;;;4.90;99.90;;;;;;5077347;28;20032;-37
2023/11/22 08:32:58;;;;;;;12.40;8.63;;;5.00;99.90;;;;;;5075675;28;20032;-37
2023/11/22 08:35:24;;;;;;;14.20;9.65;;;5.00;99.90;;;;;;5076209;28;20055;-37
2023/11/22 08:37:50;;;;;;;12.65;10.25;;;5.10;99.90;;;;;;5076811;28;20136;-35
2023/11/22 08:40:25;;;;;;;12.50;9.20;;;5.10;99.90;;;;;;5070654;28;20032;-36
2023/11/22 08:42:51;;;;;;;13.73;9.65;;;5.10;99.90;;;;;;5063725;28;20120;-36
2023/11/22 08:45:17;;;;;;;12.70;9.43;;;5.20;99.90;;;;;;5070869;28;20052;-36
2023/11/22 08:47:42;;;;;;;12.30;9.23;;;5.20;99.90;;;;;;5062731;28;20583;-36
2023/11/22 08:50:11;;;;;;;13.15;9.48;;;5.20;99.90;;;;;;5076150;28;20391;-36
2023/11/22 08:52:38;;;;;;;12.25;9.25;;;5.30;99.90;;;;;;5082106;28;20407;-37
2023/11/22 08:55:07;;;;;;;13.32;9.98;;;5.30;99.90;;;;;;5081678;28;20054;-36
2023/11/22 08:57:37;;;;;;;13.50;9.75;;;5.30;99.90;;;;;;5082480;28;20032;-36
2023/11/22 09:00:08;;;;;;;13.93;9.75;;;5.30;99.90;;;;;;5080395;28;20020;-36
2023/11/22 09:02:33;;;;;;;13.63;10.15;;;5.30;99.90;;;;;;5081853;28;20150;-36
2023/11/22 09:04:59;;;;;;;13.55;11.00;;;5.40;99.90;;;;;;5081288;28;20474;-37
2023/11/22 09:07:25;;;;;;;13.45;10.43;;;5.40;99.90;;;;;;5082326;28;20031;-37
2023/11/22 09:09:51;;;;;;;13.25;10.48;;;5.40;99.90;;;;;;5081886;28;20110;-37
2023/11/22 09:12:19;;;;;;;14.82;11.48;;;5.40;99.90;;;;;;5081135;28;20042;-37
2023/11/22 09:14:48;;;;;;;13.02;10.32;;;5.40;99.90;;;;;;5081573;28;20032;-36
2023/11/22 09:17:13;;;;;;;14.85;11.68;;;5.40;99.90;;;;;;5081587;28;20056;-37
2023/11/22 09:19:42;;;;;;;14.50;11.10;;;5.50;99.90;;;;;;5080639;28;20110;-40
2023/11/22 09:22:08;;;;;;;16.42;11.63;;;5.50;99.90;;;;;;5081674;28;20028;-37
2023/11/22 09:24:37;;;;;;;15.98;11.95;;;5.50;99.90;;;;;;5081649;28;20062;-37
2023/11/22 09:27:05;;;;;;;16.05;11.93;;;5.50;99.90;;;;;;5080988;28;20028;-36
2023/11/22 09:29:32;;;;;;;14.75;11.38;;;5.50;99.90;;;;;;5081878;28;20421;-37
2023/11/22 09:32:00;;;;;;;11.70;9.50;;;5.60;99.90;;;;;;5081151;28;20026;-37
2023/11/22 09:34:26;;;;;;;12.63;10.15;;;5.60;99.90;;;;;;5081471;28;20027;-36
2023/11/22 09:36:52;;;;;;;13.40;10.30;;;5.60;99.90;;;;;;5081240;28;20028;-37
2023/11/22 09:39:21;;;;;;;13.57;9.82;;;5.60;99.90;;;;;;5081236;28;20034;-37
2023/11/22 09:41:48;;;;;;;12.77;9.43;;;5.70;99.90;;;;;;5079613;28;20035;-37
2023/11/22 09:44:17;;;;;;;11.63;9.48;;;5.80;99.90;;;;;;5081123;28;20040;-37
2023/11/22 09:46:43;;;;;;;11.27;9.27;;;5.80;99.90;;;;;;5081052;28;20110;-37
2023/11/22 09:49:14;;;;;;;13.43;9.75;;;5.90;99.90;;;;;;5081585;28;20466;-37
2023/11/22 09:51:43;;;;;;;12.97;9.50;;;5.90;99.90;;;;;;5069684;28;20051;-38
2023/11/22 09:54:14;;;;;;;14.50;10.13;;;6.00;99.90;;;;;;5080595;28;20035;-37
2023/11/22 09:56:41;;;;;;;12.80;9.68;;;6.00;99.90;;;;;;5068218;28;20024;-38
2023/11/22 09:59:07;;;;;;;13.57;10.00;;;6.00;99.90;;;;;;5080950;28;20024;-36
2023/11/22 10:01:36;;;;;;;12.75;10.15;;;6.10;99.90;;;;;;5068890;28;20036;-37
2023/11/22 10:04:05;;;;;;;13.35;10.07;;;6.10;99.90;;;;;;5080929;28;20487;-37
2023/11/22 10:06:34;;;;;;;12.77;9.63;;;6.10;99.90;;;;;;5071660;28;20782;-36
2023/11/22 10:09:05;;;;;;;11.40;9.27;;;6.20;99.90;;;;;;5079060;28;20028;-37
2023/11/22 10:11:31;;;;;;;12.10;9.77;;;6.20;99.90;;;;;;5076491;28;20025;-36
2023/11/22 10:13:57;;;;;;;12.90;9.90;;;6.20;99.90;;;;;;5065255;28;20518;-37
2023/11/22 10:16:23;;;;;;;11.73;9.63;;;6.20;99.90;;;;;;5067384;28;20016;-39
2023/11/22 10:18:52;;;;;;;15.85;11.25;;;6.30;99.90;;;;;;5067832;28;20024;-36
2023/11/22 10:21:28;;;;;;;12.88;9.48;;;6.20;99.90;;;;;;5065263;28;20019;-37
2023/11/22 10:24:02;;;;;;;14.18;9.70;;;6.30;99.90;;;;;;5070662;28;20035;-39
2023/11/22 10:26:28;;;;;;;11.60;9.25;;;6.30;99.90;;;;;;5069584;28;20051;-46
2023/11/22 10:28:58;;;;;;;13.63;10.32;;;6.30;99.90;;;;;;5083989;28;20139;-37
2023/11/22 10:31:24;;;;;;;12.65;10.02;;;6.30;99.90;;;;;;5082419;28;20024;-37
2023/11/22 10:33:50;;;;;;;14.40;9.40;;;6.30;99.90;;;;;;5074073;28;20479;-36
2023/11/22 10:36:17;;;;;;;13.23;9.50;;;6.30;99.90;;;;;;5082831;28;20016;-36
2023/11/22 10:38:50;;;;;;;11.07;8.45;;;6.40;99.90;;;;;;5073579;28;20023;-36
2023/11/22 10:41:16;;;;;;;;;;;6.40;99.90;;;;;;5084306;28;20039;-36
2023/11/22 10:43:42;;;;;;;11.93;8.70;;;6.50;99.90;;;;;;5073479;28;19912;-37
2023/11/22 10:46:12;;;;;;;10.10;8.00;;;6.50;99.90;;;;;;5084863;28;20562;-43
2023/11/22 10:48:38;;;;;;;9.30;7.43;;;6.50;99.90;;;;;;5072949;28;20020;-36
2023/11/22 10:51:05;;;;;;;11.48;8.30;;;6.60;99.90;;;;;;5083632;28;20089;-37
2023/11/22 10:53:46;;;;;;;10.70;8.38;;;6.60;99.90;;;;;;5072178;28;20078;-36
2023/11/22 10:56:15;;;;;;;9.73;7.25;;;6.70;99.90;;;;;;5084811;28;20028;-36
2023/11/22 10:58:54;;;;;;;11.40;7.57;;;6.70;99.90;;;;;;5070682;28;20793;-36
2023/11/22 11:01:21;;;;;;;10.35;7.68;;;6.70;99.90;;;;;;5085382;28;20028;-37
2023/11/22 11:04:06;;;;;;;10.57;8.30;;;6.70;99.90;;;;;;5071762;28;20075;-37
2023/11/22 11:06:34;;;;;;;11.23;8.13;;;6.80;99.90;;;;;;5085311;28;20028;-38
2023/11/22 11:09:05;;;;;;;10.40;8.02;;;6.70;99.90;;;;;;5079522;28;20028;-38
2023/11/22 11:11:32;;;;;;;10.10;7.97;;;6.70;99.90;;;;;;5064115;28;20025;-37
2023/11/22 11:13:59;;;;;;;11.48;8.45;;;6.70;99.90;;;;;;5075349;28;20043;-36
2023/11/22 11:16:26;;;;;;;10.70;9.02;;;6.70;99.90;;;;;;5064269;28;20202;-38
2023/11/22 11:18:52;;;;;;;12.48;8.38;;;6.70;99.90;;;;;;5072702;28;20043;-38
2023/11/22 11:21:19;;;;;;;10.43;7.88;;;6.70;99.90;;;;;;5066586;28;20024;-37
2023/11/22 11:23:45;;;;;;;9.85;8.18;;;6.70;99.90;;;;;;5070649;28;20028;-38
2023/11/22 11:26:23;;;;;;;11.40;8.70;;;6.70;99.90;;;;;;5068642;28;20024;-38
2023/11/22 11:28:51;;;;;;;9.73;8.05;;;6.80;99.90;;;;;;5066743;28;20468;-36
2023/11/22 11:31:21;;;;;;;13.15;8.57;;;6.80;99.90;;;;;;5078266;28;20580;-36
2023/11/22 11:33:53;;;;;;;9.52;7.70;;;6.90;99.90;;;;;;5078655;28;20087;-37
2023/11/22 11:36:22;;;;;;;10.68;7.97;;;6.90;99.90;;;;;;5076633;28;20105;-37
2023/11/22 11:38:49;;;;;;;9.40;7.07;;;6.90;99.90;;;;;;5079676;28;20031;-36
2023/11/22 11:41:15;;;;;;;11.05;7.85;;;7.00;99.90;;;;;;5074685;28;20039;-37
2023/11/22 11:43:43;;;;;;;9.30;7.07;;;7.00;99.90;;;;;;5082418;28;20020;-37
2023/11/22 11:46:10;;;;;;;9.68;7.18;;;7.00;99.90;;;;;;5072095;28;20131;-38
2023/11/22 11:48:36;;;;;;;8.88;6.80;;;7.00;99.90;;;;;;5082932;28;20419;-37
2023/11/22 11:51:02;;;;;;;9.93;7.68;;;7.00;99.90;;;;;;5076617;28;20047;-38
2023/11/22 11:53:27;;;;;;;10.30;7.65;;;7.00;99.90;;;;;;5082265;28;20043;-37
2023/11/22 11:55:54;;;;;;;9.18;7.53;;;7.00;99.90;;;;;;5082007;28;20148;-37
2023/11/22 11:58:22;;;;;;;11.32;8.40;;;7.00;99.90;;;;;;5083474;28;20517;-37
2023/11/22 12:00:52;;;;;;;11.15;8.15;;;7.00;99.90;;;;;;5082325;28;20034;-37
2023/11/22 12:03:20;;;;;;;12.35;8.32;;;7.00;99.90;;;;;;5083826;28;20036;-43
2023/11/22 12:05:48;;;;;;;11.70;8.60;;;7.00;99.90;;;;;;5083116;28;20028;-37
2023/11/22 12:08:17;;;;;;;10.40;8.15;;;7.00;99.90;;;;;;5062279;28;20016;-38
2023/11/22 12:10:43;;;;;;;13.35;9.90;;;7.00;99.90;;;;;;5077163;28;20028;-37
2023/11/22 12:13:20;;;;;;;11.52;8.98;;;6.90;99.90;;;;;;5081813;28;20040;-37
2023/11/22 12:15:46;;;;;;;14.57;11.48;;;6.90;99.90;;;;;;5082387;28;20082;-37
2023/11/22 12:18:15;;;;;;;14.52;11.07;;;6.90;99.90;;;;;;5082767;28;20027;-37
2023/11/22 12:20:42;;;;;;;15.10;10.80;;;6.80;99.90;;;;;;5082480;28;20020;-36
2023/11/22 12:23:09;;;;;;;14.80;10.48;;;6.80;99.90;;;;;;5082072;28;20131;-36
2023/11/22 12:25:35;;;;;;;15.40;10.77;;;6.80;99.90;;;;;;5083495;28;20024;-37
2023/11/22 12:28:04;;;;;;;14.15;10.40;;;6.80;99.90;;;;;;5082803;28;20056;-37
2023/11/22 12:30:31;;;;;;;13.98;10.57;;;6.80;99.90;;;;;;5083984;28;20828;-37
2023/11/22 12:33:00;;;;;;;14.63;10.68;;;6.80;99.90;;;;;;5083061;28;20122;-37
2023/11/22 12:35:26;;;;;;;15.05;10.90;;;6.90;99.90;;;;;;5082674;28;20073;-37
2023/11/22 12:37:54;;;;;;;14.65;10.45;;;6.90;99.90;;;;;;5082685;28;20119;-37
2023/11/22 12:40:20;;;;;;;14.95;10.38;;;6.90;99.90;;;;;;5083388;28;20031;-38
2023/11/22 12:42:53;;;;;;;15.02;10.80;;;6.90;99.90;;;;;;5081581;28;20027;-38